SNSI weather

Santa Maria do Suaçuí Airport
Santa Maria Do Suaçuí, Minas Gerais, Brazil

Public forecast

Using degrees Celsius for public forecast. Weather courtesy of forecast.io.

METAR (pilot weather report)

Report is more than 6 hours old.

Closest report is Usiminas Airport, 76.4 nm (141.5 km) S. Retrieved 2019/07/20 20:00 UTC (10 hours ago):

SBIP 202000Z 03004KT 9999 BKN040 22/14 Q1024

TAF (pilot weather forecast)

Forecast is more than 12 hours old.

Closest forecast is Serro Airport, 59.9 nm (110.9 km) WSW. Retrieved 2009/11/03 09:30 UTC (10 years ago):

TAF SNSO 030930Z 0312/0418 06010G20KT CAVOK TEMPO 0315/0319 5000 HZ